Aérodrome :
LOGIN :

S'inscrire | Disclaimer

   EN    FR    IT 

 










Légende :    VFR   VFR Marginal   IFR   IFR Intensif   IFR Très Intensif
Visi : 
Plafond : 
>= 8 km
>= 3000ft
5 à 8 km
1000 à 3000 ft
1500m à 5 km
500 à 1000 ft
800 à 1500m
200 à 500 ft
< 800m
< 200 ft
Symboles :   Orages  Brouillard  Fortes neiges  Fortes précipitations  Vent > 20 kt
SIGMETs :   Divers  Orages  Givrage  Turbulence  Onde Orograph.  Cendres Volcan.







- Altitude de l'aérodrome : 96 ft
- Code IATA : REG


LICR - Reggio Calabria

DERNIER METAR :
  • 280750Z 16003KT 9000 NSC 18/14 Q1014

METARs EXPIRÉS :
  • 280650Z 14011KT 8000 NSC 17/14 Q1014
  • 280550Z 18006KT 9000 NSC 17/16 Q1014

TAF TAF LICR
Valide du 28 à 06h jusqu'au 29 à 06h UTC


280500Z 2806/2906 VRB05KT 9999 SCT030
BECMG 2808/2810 18012KT
Pas de NOTAMs connus pour ce terrain.
5 SIGMETs publiés pour la FIR Roma (LIRR) :
 
Annulation du SIGMET 2 
LIRR SIGMET 6 VALID 280610/280900 LIIB
LIRR ROMA FIR CNL SIGMET 2 280500/280900=
Orages noyés dans la masse
LIRR SIGMET 5 VALID 280610/280900 LIIB- LIRR ROMA FIR EMBD TS FCST WI N4247 E01255 - N4036 E01516 - N3801 E01037 - N3909 E00828 - N4247 E01255 TOP FL350 STNR NC=
Givrage fort
LIRR SIGMET 4 VALID 280515/280900 LIIB- LIRR ROMA FIR SEV ICE OBS AT 0503Z WI N4157 E01211 - N4204 E01237 - N4130 E01305 - N4120 E01252 - N4157 E01211 FL100 STNR NC=
Turbulence forte
LIRR SIGMET 3 VALID 280515/280900 LIIB- LIRR ROMA FIR SEV TURB OBS AT 0450Z WI N4341 E01103 - N4330 E01101 - N4330 E01133 - N4341 E01132 - N4341 E01103 FL370 STNR NC=
SIGMET 2  ANNULÉ :
Orages noyés dans la masse
LIRR SIGMET 2 VALID 280500/280900 LIIB- LIRR ROMA FIR EMBD TS FCST WI N4128 E01401 - N4036 E01517 - N3801 E01038 - N3909 E00828 - N4128 E01401 TOP FL350 STNR NC=



MET'MAP, la Météo Aéronautique d'un coup d'oeil ! - Copyright ORBIFLY Décembre 2007 - Disclaimer

ORBIFLY MET'MAP TEAM :

Programmation & Développement : Alexandra Zaïnal
Conception & Développement : Baudouin d'Aumeries
Co-Programmation & Développement : Marc-Olivier Méhu
Soutien technique & logistique : Manuel Goepfert

Contact : metmap@orbifly.com




SOURCES & CREDITS :

   NOAA